KGLR

Gaylord Regional Airport

Gaylord, Michigan, USA
METAR KGLR 172053Z AUTO 15009KT 10SM OVC006 M05/M06 A3005 RMK AO2 SLP200 T10501061 55016
Observed Flight Rules
Dec-17 @ 20:53 UTC (40 minutes ago) Instrument Flight Rules
Wind Visibility Clouds
150° at 9 knots 10 miles
  • Overcast at 600' AGL
Temperatures Readings
Current -5°C / 23°F
Dewpoint -6°C / 21°F
Humidity 93%
Altimeter 30.05" Hg
Pressure 1020 hPa
Elevation 407
METAR KGLR 172053Z AUTO 15009KT 10SM OVC006 M05/M06 A3005 RMK AO2 SLP200 T10501061 55016
Observed Flight Rules
Dec-17 @ 20:53 UTC
(40 minutes ago)
IFR
Wind Visibility
150° at 9 knots 10 miles
Clouds
  • Overcast at 600' AGL
Temperature Dewpoint
-5°C / 23°F -6°C / 21°F
Humidity Altimeter Pressure
93% 30.05" Hg 1020 hPa